Lynn, Wisconsin
Current Conditions -  °F | °C
As of 5:54 PM on Saturday 25 Oct 2014 (Local Time) from KMFI Reporting Station
Clear Clear  
Wind Chill: 56°   Ceiling: Unl
Heat Index: 56°   Visibility: 10mi
Dew Point: 28°   Wind: 12mph
Humidity: 34%   Direction: 290°WNW
Pressure: 29.93"   Gusts: 21mph
Location:  44.5388°N, 90.4382°W
Report Text: KMFI 252254Z AUTO 29010G18KT 10SM CLR 13/M02 A2993 RMK AO2 PK WND 30026/2224 SLP139 T01331022
Loading
Personal Weather Stations






























Interactive Weather Map
Tropical Storm Tracking
New forecast layout! Learn more

10-Day Weather Forecast

Advertisements
Track Severe Weather on mobile